createdAt,value
2023-04-05T03:11:18.725Z,-3.20
2023-04-05T03:13:58.044Z,-3.30
2023-04-05T03:16:55.385Z,-3.40
2023-04-05T03:19:46.024Z,-3.40
2023-04-05T03:22:25.251Z,-3.50
2023-04-05T03:25:19.768Z,-3.60
2023-04-05T03:28:10.993Z,-3.60
2023-04-05T03:31:06.795Z,-3.70
2023-04-05T03:33:44.310Z,-3.60
2023-04-05T03:36:20.005Z,-3.40
2023-04-05T03:39:00.552Z,-3.50
2023-04-05T03:41:33.431Z,-3.40
2023-04-05T03:44:17.350Z,-3.40
2023-04-05T03:47:04.340Z,-3.20
2023-04-05T03:49:57.530Z,-3.20
2023-04-05T03:52:27.219Z,-3.10
2023-04-05T03:54:59.172Z,-2.90
2023-04-05T03:57:32.877Z,-3.00
2023-04-05T04:00:21.221Z,-2.90
2023-04-05T04:03:09.527Z,-3.00
2023-04-05T04:05:49.412Z,-2.80
2023-04-05T04:08:27.638Z,-2.60
2023-04-05T04:11:26.105Z,-2.60
2023-04-05T04:14:19.275Z,-2.60
2023-04-05T04:17:33.650Z,-2.50
2023-04-05T04:20:18.444Z,-2.40
2023-04-05T04:23:12.337Z,-2.30
2023-04-05T04:26:11.905Z,-2.30
2023-04-05T04:28:59.691Z,-2.40
2023-04-05T04:31:48.848Z,-2.40
2023-04-05T04:34:46.200Z,-2.10
2023-04-05T04:37:55.127Z,-2.10
2023-04-05T04:40:47.761Z,-2.00
2023-04-05T04:43:30.486Z,-1.90
2023-04-05T04:46:43.178Z,-1.70
2023-04-05T04:49:53.032Z,-1.80
2023-04-05T04:52:39.208Z,-1.70
2023-04-05T04:55:26.272Z,-1.60
2023-04-05T04:58:03.019Z,-1.60
2023-04-05T05:00:44.797Z,-1.60
2023-04-05T05:03:17.483Z,-1.40
2023-04-05T05:05:48.862Z,-1.40
2023-04-05T05:08:26.258Z,-1.50
2023-04-05T05:11:02.666Z,-1.30
2023-04-05T05:13:53.190Z,-1.40
2023-04-05T05:16:40.318Z,-1.30
2023-04-05T05:19:15.310Z,-1.10
2023-04-05T05:22:11.564Z,-1.00
2023-04-05T05:24:55.206Z,-0.90
2023-04-05T05:27:37.237Z,-0.90
2023-04-05T05:30:20.937Z,-0.80
2023-04-05T05:33:00.230Z,-0.70
2023-04-05T05:35:49.555Z,-0.60
2023-04-05T05:38:55.828Z,-0.50
2023-04-05T05:41:38.527Z,-0.30
2023-04-05T05:44:19.682Z,-0.40
2023-04-05T05:46:50.943Z,-0.40
2023-04-05T05:49:44.645Z,-0.20
2023-04-05T05:52:27.049Z,-0.20
2023-04-05T05:55:04.026Z,-0.10
2023-04-05T05:58:05.157Z,-0.10
2023-04-05T06:00:50.753Z,0.00
2023-04-05T06:03:34.158Z,0.00
2023-04-05T06:06:12.422Z,0.00
2023-04-05T06:08:49.794Z,0.20
2023-04-05T06:11:53.197Z,0.20
2023-04-05T06:14:35.087Z,0.30
2023-04-05T06:17:23.785Z,0.30
2023-04-05T06:20:12.837Z,0.40
2023-04-05T06:23:00.902Z,0.40
2023-04-05T06:25:35.588Z,0.60
2023-04-05T06:28:18.447Z,0.60
2023-04-05T06:31:27.945Z,0.60
2023-04-05T06:34:52.517Z,0.60
2023-04-05T06:37:29.401Z,0.60
2023-04-05T06:40:04.042Z,0.80
2023-04-05T06:42:40.080Z,0.80
2023-04-05T06:45:19.044Z,0.80
2023-04-05T06:47:59.644Z,0.80
2023-04-05T06:51:01.446Z,0.90
2023-04-05T06:53:33.810Z,1.00
2023-04-05T06:56:12.716Z,1.00
2023-04-05T06:58:48.546Z,0.90
2023-04-05T07:01:37.368Z,1.10
2023-04-05T07:04:17.317Z,1.00
2023-04-05T07:07:32.583Z,1.10
2023-04-05T07:10:07.911Z,1.10
2023-04-05T07:12:51.777Z,1.20
2023-04-05T07:15:49.006Z,1.10
2023-04-05T07:19:01.897Z,1.30
2023-04-05T07:21:36.887Z,1.30
2023-04-05T07:24:21.828Z,1.40
2023-04-05T07:27:08.250Z,1.40
2023-04-05T07:30:03.589Z,1.40
2023-04-05T07:32:56.069Z,1.50
2023-04-05T07:35:52.686Z,1.50
2023-04-05T07:38:45.226Z,1.60
2023-04-05T07:41:24.218Z,1.80
2023-04-05T07:44:35.174Z,1.70
2023-04-05T07:47:27.869Z,1.80
2023-04-05T07:50:13.554Z,1.80
2023-04-05T07:52:55.722Z,1.90
2023-04-05T07:55:49.837Z,2.00
2023-04-05T07:58:53.186Z,2.20
2023-04-05T08:01:24.060Z,2.10
2023-04-05T08:04:03.484Z,2.20
2023-04-05T08:06:40.881Z,2.30
2023-04-05T08:09:26.441Z,2.40
2023-04-05T08:14:58.503Z,2.40
2023-04-05T08:17:32.130Z,2.40
2023-04-05T08:20:22.250Z,2.30
2023-04-05T08:22:55.777Z,2.60
2023-04-05T08:25:46.043Z,2.50
2023-04-05T08:28:19.800Z,2.40
2023-04-05T08:30:56.586Z,2.60
2023-04-05T08:33:36.207Z,2.80
2023-04-05T08:36:30.698Z,3.00
2023-04-05T08:39:06.382Z,2.80
2023-04-05T08:41:51.681Z,2.90
2023-04-05T08:44:32.188Z,2.90
2023-04-05T08:47:18.992Z,2.70
2023-04-05T08:49:53.267Z,2.80
2023-04-05T08:52:27.180Z,3.00
2023-04-05T08:55:25.746Z,3.10
2023-04-05T08:58:02.213Z,3.10
2023-04-05T09:00:48.877Z,3.10
2023-04-05T09:03:26.230Z,3.00
2023-04-05T09:06:05.738Z,2.90
2023-04-05T09:08:36.552Z,3.20
2023-04-05T09:11:24.030Z,3.10
2023-04-05T09:14:10.385Z,3.40
2023-04-05T09:16:56.180Z,3.10
2023-04-05T09:19:26.093Z,2.80
2023-04-05T09:22:09.555Z,2.90
2023-04-05T09:24:52.224Z,3.00
2023-04-05T09:27:32.038Z,3.30
2023-04-05T09:30:01.775Z,3.30
2023-04-05T09:32:42.622Z,3.10
2023-04-05T09:35:29.124Z,3.30
2023-04-05T09:38:01.042Z,3.30
2023-04-05T09:40:59.604Z,3.70
2023-04-05T09:43:40.051Z,3.60
2023-04-05T09:46:35.853Z,3.90
2023-04-05T09:49:10.345Z,3.70
2023-04-05T09:51:52.323Z,4.00
2023-04-05T09:54:24.285Z,4.30
2023-04-05T09:56:58.354Z,4.00
2023-04-05T09:59:34.108Z,3.90
2023-04-05T10:02:19.239Z,4.40
2023-04-05T10:04:55.315Z,4.80
2023-04-05T10:07:33.670Z,4.70
2023-04-05T10:10:09.687Z,4.30
2023-04-05T10:12:47.260Z,3.90
2023-04-05T10:15:25.637Z,3.70
2023-04-05T10:18:20.584Z,3.60
2023-04-05T10:20:55.045Z,3.60
2023-04-05T10:23:36.381Z,3.50
2023-04-05T10:26:52.378Z,3.40
2023-04-05T10:29:30.982Z,3.10
2023-04-05T10:32:19.196Z,3.20
2023-04-05T10:35:09.087Z,3.10
2023-04-05T10:38:17.426Z,3.20
2023-04-05T10:40:55.798Z,3.30
2023-04-05T10:43:28.619Z,3.40
2023-04-05T10:46:17.624Z,3.50
2023-04-05T10:48:55.405Z,3.50
2023-04-05T10:51:32.029Z,3.70
2023-04-05T10:54:46.651Z,3.70
2023-04-05T10:57:25.173Z,3.90
2023-04-05T11:00:08.452Z,3.60
2023-04-05T11:02:55.363Z,3.60
2023-04-05T11:05:37.997Z,3.70
2023-04-05T11:08:15.382Z,3.70
2023-04-05T11:10:56.567Z,3.80
2023-04-05T11:13:53.547Z,4.00
2023-04-05T11:16:42.405Z,4.10
2023-04-05T11:19:14.411Z,4.20
2023-04-05T11:21:48.683Z,4.60
2023-04-05T11:24:21.600Z,4.40
2023-04-05T11:27:04.969Z,4.40
2023-04-05T11:29:52.099Z,4.40
2023-04-05T11:32:25.979Z,4.40
2023-04-05T11:35:11.585Z,4.50
2023-04-05T11:38:11.325Z,4.50
2023-04-05T11:41:15.272Z,4.40
2023-04-05T11:44:34.543Z,4.50
2023-04-05T11:47:07.649Z,4.20
2023-04-05T11:49:40.825Z,4.20
2023-04-05T11:52:19.894Z,3.80
2023-04-05T11:55:05.987Z,3.80
2023-04-05T11:57:36.961Z,3.90
2023-04-05T12:00:29.710Z,3.70
2023-04-05T12:03:09.521Z,3.90
2023-04-05T12:06:03.197Z,4.00
2023-04-05T12:08:42.246Z,4.50
2023-04-05T12:11:32.575Z,5.00
2023-04-05T12:14:05.325Z,5.50
2023-04-05T12:17:05.250Z,6.00
2023-04-05T12:19:42.677Z,6.40
2023-04-05T12:22:14.392Z,6.20
2023-04-05T12:25:16.655Z,5.90
2023-04-05T12:28:22.904Z,5.90
2023-04-05T12:31:05.420Z,5.70
2023-04-05T12:33:55.776Z,5.20
2023-04-05T12:36:37.369Z,5.10
2023-04-05T12:39:11.976Z,5.00
2023-04-05T12:41:58.705Z,4.80
2023-04-05T12:44:38.621Z,4.80
2023-04-05T12:47:15.365Z,4.80
2023-04-05T12:49:47.931Z,4.80
2023-04-05T12:52:23.263Z,4.60
2023-04-05T12:54:58.285Z,4.70
2023-04-05T12:57:34.524Z,4.60
2023-04-05T13:00:12.657Z,4.50
2023-04-05T13:02:53.884Z,4.40
2023-04-05T13:05:28.220Z,4.20
2023-04-05T13:08:01.408Z,4.10
2023-04-05T13:10:32.192Z,4.20
2023-04-05T13:13:01.232Z,4.40
2023-04-05T13:15:44.808Z,4.30
2023-04-05T13:18:33.010Z,4.30
2023-04-05T13:21:35.475Z,4.50
2023-04-05T13:24:13.014Z,4.50
2023-04-05T13:27:01.459Z,4.50
2023-04-05T13:29:56.350Z,4.50
2023-04-05T13:32:45.263Z,4.40
2023-04-05T13:35:38.516Z,4.40
2023-04-05T13:41:31.661Z,4.40
2023-04-05T13:44:12.976Z,4.30
2023-04-05T13:47:12.161Z,4.40
2023-04-05T13:49:58.037Z,4.40
2023-04-05T13:52:45.300Z,4.40
2023-04-05T13:55:16.664Z,4.40
2023-04-05T13:58:26.787Z,4.20
2023-04-05T14:01:19.689Z,4.20
2023-04-05T14:04:07.715Z,4.30
2023-04-05T14:06:53.815Z,4.60
2023-04-05T14:09:33.060Z,4.20
2023-04-05T14:12:10.610Z,4.40
2023-04-05T14:14:54.559Z,4.30
2023-04-05T14:17:44.038Z,4.30
2023-04-05T14:20:29.907Z,4.10
2023-04-05T14:23:06.596Z,4.00
2023-04-05T14:26:04.379Z,4.00
2023-04-05T14:28:46.701Z,4.00
2023-04-05T14:31:18.799Z,3.90
2023-04-05T14:34:20.348Z,4.00
2023-04-05T14:36:58.498Z,4.40
2023-04-05T14:39:42.700Z,4.20
2023-04-05T14:42:34.166Z,4.20
2023-04-05T14:45:58.524Z,4.20
2023-04-05T14:48:47.918Z,4.30
2023-04-05T14:51:32.010Z,4.30
2023-04-05T14:54:19.929Z,4.40
2023-04-05T14:57:05.968Z,4.30
2023-04-05T14:59:37.502Z,4.10
2023-04-05T15:02:21.439Z,4.10
2023-04-05T15:05:01.515Z,4.00
2023-04-05T15:07:46.580Z,4.00
2023-04-05T15:10:18.630Z,4.10
2023-04-05T15:12:53.232Z,4.10
2023-04-05T15:15:30.403Z,4.00
2023-04-05T15:18:02.415Z,4.00
2023-04-05T15:20:48.942Z,4.00
2023-04-05T15:23:29.626Z,3.90
2023-04-05T15:26:13.644Z,3.90
2023-04-05T15:28:47.971Z,3.90
2023-04-05T15:31:22.755Z,3.80
2023-04-05T15:34:26.597Z,3.80
2023-04-05T15:36:59.138Z,3.70
2023-04-05T15:39:34.880Z,3.60
2023-04-05T15:42:19.900Z,3.60
2023-04-05T15:44:48.685Z,3.50
2023-04-05T15:47:23.617Z,3.50
2023-04-05T15:50:20.633Z,3.50
2023-04-05T15:52:53.488Z,3.40
2023-04-05T15:55:35.119Z,3.60
2023-04-05T15:58:12.670Z,3.40
2023-04-05T16:00:50.131Z,3.40
2023-04-05T16:03:27.641Z,3.40
2023-04-05T16:06:12.198Z,3.30
2023-04-05T16:08:44.591Z,3.20
2023-04-05T16:11:41.688Z,3.20
2023-04-05T16:14:20.172Z,3.20
2023-04-05T16:17:12.132Z,3.20
2023-04-05T16:19:41.492Z,3.20
2023-04-05T16:22:23.664Z,3.10
2023-04-05T16:25:17.651Z,3.10
2023-04-05T16:28:14.767Z,3.10
2023-04-05T16:30:55.317Z,3.10
2023-04-05T16:33:52.412Z,3.00
2023-04-05T16:36:24.252Z,3.00
2023-04-05T16:39:14.118Z,2.90
2023-04-05T16:41:46.171Z,2.90
2023-04-05T16:44:22.036Z,2.80
2023-04-05T16:46:57.890Z,2.90
2023-04-05T16:49:45.507Z,2.80
2023-04-05T16:52:21.698Z,2.70
2023-04-05T16:54:59.093Z,2.70
2023-04-05T16:57:43.371Z,2.70
2023-04-05T17:00:21.088Z,2.60
2023-04-05T17:02:54.963Z,2.60
2023-04-05T17:05:41.405Z,2.60
2023-04-05T17:11:24.403Z,2.60
2023-04-05T17:14:00.160Z,2.40
2023-04-05T17:16:41.056Z,2.40
2023-04-05T17:19:19.594Z,2.40
2023-04-05T17:22:17.287Z,2.30
2023-04-05T17:25:01.276Z,2.20
2023-04-05T17:27:41.059Z,2.20
2023-04-05T17:30:29.888Z,2.20
2023-04-05T17:33:04.571Z,2.10
2023-04-05T17:35:35.351Z,2.10
2023-04-05T17:38:08.716Z,2.10
2023-04-05T17:40:39.008Z,2.10
2023-04-05T17:43:18.436Z,2.20
2023-04-05T17:46:00.541Z,2.10
2023-04-05T17:48:40.245Z,2.10
2023-04-05T17:51:09.732Z,2.10
2023-04-05T17:53:43.620Z,2.10
2023-04-05T17:56:15.495Z,2.30
2023-04-05T17:58:46.062Z,2.10
2023-04-05T18:01:28.859Z,2.10
2023-04-05T18:04:14.735Z,2.10
2023-04-05T18:06:50.424Z,2.10
2023-04-05T18:09:30.992Z,2.10
2023-04-05T18:12:05.584Z,2.00
2023-04-05T18:14:43.254Z,2.00
2023-04-05T18:17:15.582Z,2.10
2023-04-05T18:19:45.322Z,2.00
2023-04-05T18:22:24.091Z,2.00
2023-04-05T18:24:52.745Z,2.00
2023-04-05T18:27:47.572Z,2.00
2023-04-05T18:30:48.165Z,2.00
2023-04-05T18:33:22.627Z,2.00
2023-04-05T18:36:14.158Z,1.90
2023-04-05T18:39:14.631Z,1.90
2023-04-05T18:41:55.102Z,1.90
2023-04-05T18:44:37.732Z,1.80
2023-04-05T18:47:34.052Z,1.80
2023-04-05T18:50:22.477Z,1.90
2023-04-05T18:52:59.420Z,1.90
2023-04-05T18:55:48.356Z,2.00
2023-04-05T18:58:28.724Z,1.80
2023-04-05T19:01:14.406Z,1.80
2023-04-05T19:04:11.431Z,1.80
2023-04-05T19:06:43.456Z,1.80
2023-04-05T19:09:18.416Z,1.90
2023-04-05T19:12:08.326Z,1.80
2023-04-05T19:14:56.593Z,1.80
2023-04-05T19:17:42.463Z,1.80
2023-04-05T19:20:30.880Z,1.80
2023-04-05T19:23:07.709Z,1.80
2023-04-05T19:25:52.866Z,1.70
2023-04-05T19:28:31.592Z,1.80
2023-04-05T19:31:02.512Z,1.80
2023-04-05T19:34:07.709Z,1.80
2023-04-05T19:37:07.863Z,1.80
2023-04-05T19:39:44.857Z,1.80
2023-04-05T19:42:19.725Z,1.80
2023-04-05T19:44:58.891Z,1.70
2023-04-05T19:47:35.709Z,1.80
2023-04-05T19:50:15.998Z,1.80
2023-04-05T19:52:53.790Z,1.80
2023-04-05T19:55:40.181Z,1.70
2023-04-05T19:58:15.254Z,1.70
2023-04-05T20:00:55.335Z,1.70
2023-04-05T20:03:43.948Z,1.70
2023-04-05T20:06:18.136Z,1.70
2023-04-05T20:09:01.089Z,1.70
2023-04-05T20:11:33.210Z,1.70
2023-04-05T20:14:18.276Z,1.70
2023-04-05T20:16:49.850Z,1.70
2023-04-05T20:19:31.402Z,1.70
2023-04-05T20:22:02.692Z,1.60
2023-04-05T20:24:35.721Z,1.60
2023-04-05T20:27:43.682Z,1.60
2023-04-05T20:30:13.618Z,1.60
2023-04-05T20:32:56.508Z,1.60
2023-04-05T20:35:33.428Z,1.60
2023-04-05T20:38:22.418Z,1.50
2023-04-05T20:41:35.303Z,1.60
2023-04-05T20:44:03.225Z,1.50
2023-04-05T20:46:50.661Z,1.60
2023-04-05T20:49:31.927Z,1.60
2023-04-05T20:52:14.168Z,1.50
2023-04-05T20:54:54.302Z,1.50
2023-04-05T20:57:55.846Z,1.50
2023-04-05T21:00:44.616Z,1.50
2023-04-05T21:03:15.504Z,1.40
2023-04-05T21:05:47.658Z,1.40
2023-04-05T21:08:20.531Z,1.40
2023-04-05T21:11:03.169Z,1.60
2023-04-05T21:13:55.362Z,1.40
2023-04-05T21:16:25.557Z,1.30
2023-04-05T21:18:58.689Z,1.30
2023-04-05T21:21:38.252Z,1.30
2023-04-05T21:24:22.552Z,1.30
2023-04-05T21:27:26.967Z,1.30
2023-04-05T21:30:10.663Z,1.30
2023-04-05T21:32:41.398Z,1.20
2023-04-05T21:35:23.775Z,1.30
2023-04-05T21:37:59.288Z,1.20
2023-04-05T21:40:38.506Z,1.20
2023-04-05T21:43:13.315Z,1.20
2023-04-05T21:45:56.156Z,1.40
2023-04-05T21:48:29.205Z,1.20
2023-04-05T21:51:02.732Z,1.30
2023-04-05T21:53:33.453Z,1.20
2023-04-05T21:56:06.036Z,1.20
2023-04-05T21:58:37.806Z,1.20
2023-04-05T22:01:14.731Z,1.20
2023-04-05T22:03:52.283Z,1.20
2023-04-05T22:06:56.164Z,1.20
2023-04-05T22:09:28.182Z,1.20
2023-04-05T22:12:01.816Z,1.20
2023-04-05T22:14:47.953Z,1.20
2023-04-05T22:17:21.752Z,1.20
2023-04-05T22:19:57.236Z,1.20
2023-04-05T22:22:27.830Z,1.40
2023-04-05T22:25:04.898Z,1.20
2023-04-05T22:27:43.847Z,1.20
2023-04-05T22:30:24.323Z,1.20
2023-04-05T22:32:58.171Z,1.30
2023-04-05T22:35:30.345Z,1.30
2023-04-05T22:38:05.978Z,1.20
2023-04-05T22:40:46.141Z,1.30
2023-04-05T22:43:19.148Z,1.20
2023-04-05T22:45:52.238Z,1.10
2023-04-05T22:48:28.787Z,1.30
2023-04-05T22:51:01.282Z,1.30
2023-04-05T22:53:34.724Z,1.30
2023-04-05T22:56:06.066Z,1.30
2023-04-05T22:58:45.529Z,1.30
2023-04-05T23:01:27.898Z,1.30
2023-04-05T23:04:05.458Z,1.30
2023-04-05T23:07:02.434Z,1.40
2023-04-05T23:09:30.752Z,1.30
2023-04-05T23:12:04.135Z,1.40
2023-04-05T23:14:37.127Z,1.30
2023-04-05T23:17:15.194Z,1.30
2023-04-05T23:20:13.700Z,1.30
2023-04-05T23:22:44.560Z,1.30
2023-04-05T23:25:15.089Z,1.30
2023-04-05T23:28:02.193Z,1.20
2023-04-05T23:30:35.015Z,1.20
2023-04-05T23:33:14.048Z,1.30
2023-04-05T23:36:04.518Z,1.30
2023-04-05T23:38:37.285Z,1.20
2023-04-05T23:41:12.291Z,1.30
2023-04-05T23:43:42.132Z,1.20
2023-04-05T23:46:13.650Z,1.30
2023-04-05T23:48:46.112Z,1.20
2023-04-05T23:51:21.740Z,1.20
2023-04-05T23:53:59.454Z,1.30
2023-04-05T23:56:32.751Z,1.20
2023-04-05T23:59:15.081Z,1.20
